Time;durP1;ratioP1;P1;durP2;ratioP2;P2;SDS_P1;SDS_P2;PMS_P1;PMS_P2;Temp;Humidity;BMP_temperature;BMP_pressure;BME280_temperature;BME280_humidity;BME280_pressure;Samples;Min_cycle;Max_cycle;Signal;HPM_P1;HPM_P2
2022/11/09 00:06:44;;;;;;;;;;;;;;;;;;;;;
2022/11/09 00:10:31;;;;;;;;;;;;;;;;;;;;;
2022/11/09 00:26:13;;;;;;;;;;;;;;;;;;;;;
2022/11/09 00:41:04;;;;;;;;;;;;;;;;;;;;;
2022/11/09 00:44:21;;;;;;;1.25;0.50;;;11.60;99.90;;;;;;4760938;29;20048;-88
2022/11/09 00:47:56;;;;;;;;;;;;;;;;;;;;;
2022/11/09 00:58:55;;;;;;;;;;;;;;;;;;;;;
2022/11/09 01:02:25;;;;;;;;;;;;;;;;;;;;;
2022/11/09 01:17:22;;;;;;;0.85;0.47;;;11.70;99.90;;;;;;4911043;29;20481;-88
2022/11/09 01:42:09;;;;;;;;;;;;;;;;;;;;;
2022/11/09 01:45:54;;;;;;;5.85;1.00;;;11.80;99.90;;;;;;4963239;28;20139;-89
2022/11/09 01:56:47;;;;;;;;;;;;;;;;;;;;;
2022/11/09 02:00:38;;;;;;;;;;;;;;;;;;;;;
2022/11/09 02:22:05;;;;;;;;;;;;;;;;;;;;;
2022/11/09 02:40:28;;;;;;;;;;;;;;;;;;;;;
2022/11/09 04:16:15;;;;;;;;;;;;;;;;;;;;;
2022/11/09 04:38:56;;;;;;;;;;;;;;;;;;;;;
2022/11/09 06:49:13;;;;;;;;;;;;;;;;;;;;;
2022/11/09 07:01:02;;;;;;;;;;;;;;;;;;;;;
2022/11/09 07:13:03;;;;;;;;;;;;;;;;;;;;;
2022/11/09 07:28:19;;;;;;;;;;;;;;;;;;;;;
2022/11/09 07:31:50;;;;;;;;;;;;;;;;;;;;;
2022/11/09 07:45:23;;;;;;;2.63;0.57;;;11.00;99.90;;;;;;4088006;27;28670136;-90
2022/11/09 07:49:01;;;;;;;2.67;0.50;;;11.80;99.90;;;;;;5077855;28;20056;-90
2022/11/09 07:51:36;;;;;;;1.88;0.57;;;11.70;99.90;;;;;;5029266;28;20045;-87
2022/11/09 07:54:44;;;;;;;;;;;;;;;;;;;;;
2022/11/09 07:57:57;;;;;;;;;;;;;;;;;;;;;
2022/11/09 08:01:07;;;;;;;5.43;0.73;;;11.70;99.90;;;;;;5062092;28;20503;-92
2022/11/09 08:04:18;;;;;;;;;;;;;;;;;;;;;
2022/11/09 08:07:32;;;;;;;;;;;;;;;;;;;;;
2022/11/09 08:10:50;;;;;;;;;;;;;;;;;;;;;
2022/11/09 08:13:52;;;;;;;13.05;2.63;;;11.50;99.90;;;;;;5069540;28;20045;-89
2022/11/09 08:16:53;;;;;;;5.78;0.85;;;12.20;99.90;;;;;;5044638;28;20044;-88
2022/11/09 08:27:22;;;;;;;3.42;0.80;;;11.90;99.90;;;;;;5049632;28;20454;-89
2022/11/09 08:30:22;;;;;;;4.75;1.00;;;12.00;99.90;;;;;;5032267;28;20403;-88
2022/11/09 08:33:36;;;;;;;;;;;;;;;;;;;;;
2022/11/09 08:36:35;;;;;;;4.30;0.55;;;12.00;99.90;;;;;;5069338;28;20426;-89
2022/11/09 08:39:26;;;;;;;6.82;0.75;;;12.00;99.90;;;;;;5069367;28;20041;-90
2022/11/09 08:42:46;;;;;;;4.10;0.70;;;12.10;99.90;;;;;;5053690;28;20063;-89
2022/11/09 08:46:07;;;;;;;2.47;0.60;;;12.10;99.90;;;;;;5041562;28;20111;-93
2022/11/09 08:49:07;;;;;;;5.43;1.20;;;12.10;99.90;;;;;;4985009;28;20578;-89
2022/11/09 08:52:12;;;;;;;5.93;0.60;;;12.20;99.90;;;;;;5036020;28;20107;-90
2022/11/09 08:55:20;;;;;;;;;;;;;;;;;;;;;
2022/11/09 08:58:18;;;;;;;8.68;1.38;;;12.30;99.90;;;;;;5035974;28;20107;-88
2022/11/09 09:01:20;;;;;;;7.50;0.80;;;12.40;99.90;;;;;;5017924;28;20053;-88
2022/11/09 09:04:36;;;;;;;5.25;0.65;;;12.40;99.90;;;;;;5035779;28;20416;-87
2022/11/09 09:07:50;;;;;;;3.15;0.55;;;12.40;99.90;;;;;;5001593;28;20189;-88
2022/11/09 09:10:56;;;;;;;7.80;0.80;;;12.50;99.90;;;;;;5034024;28;20089;-89
2022/11/09 09:13:53;;;;;;;;;;;12.50;99.90;;;;;;5019516;28;20053;-88
2022/11/09 09:17:00;;;;;;;7.55;0.90;;;12.60;99.90;;;;;;5017753;28;19921;-89
2022/11/09 09:19:56;;;;;;;5.32;0.80;;;12.60;99.90;;;;;;5033467;28;20100;-88
2022/11/09 09:22:51;;;;;;;;;;;;;;;;;;;;;
2022/11/09 09:25:53;;;;;;;5.50;0.88;;;12.70;99.90;;;;;;5018252;28;20506;-88
2022/11/09 09:29:43;;;;;;;6.47;0.82;;;12.70;99.90;;;;;;5030028;28;20518;-87
2022/11/09 09:33:02;;;;;;;;;;;;;;;;;;;;;
2022/11/09 10:00:41;;;;;;;;;;;;;;;;;;;;;
2022/11/09 10:04:12;;;;;;;7.30;0.82;;;13.30;99.90;;;;;;4819478;29;20058;-89
2022/11/09 10:07:33;;;;;;;4.35;0.90;;;13.20;99.90;;;;;;4823355;29;20105;-92
2022/11/09 10:10:52;;;;;;;6.38;0.70;;;13.40;99.90;;;;;;4807250;29;20074;-88
2022/11/09 10:14:20;;;;;;;;;;;;;;;;;;;;;
2022/11/09 10:21:07;;;;;;;4.90;0.80;;;13.50;99.90;;;;;;5159098;23;20059;-94
2022/11/09 10:28:32;;;;;;;;;;;;;;;;;;;;;
2022/11/09 10:32:24;;;;;;;;;;;;;;;;;;;;;
2022/11/09 10:58:49;;;;;;;3.80;1.13;;;14.00;99.90;;;;;;5016347;23;20126;-93
2022/11/09 11:01:43;;;;;;;3.60;1.08;;;14.00;99.90;;;;;;4940477;29;20043;-89
2022/11/09 11:04:23;;;;;;;8.13;1.55;;;13.90;99.90;;;;;;4943591;29;20526;-93
2022/11/09 11:12:28;;;;;;;6.55;1.13;;;14.00;99.90;;;;;;4885895;29;20047;-90
2022/11/09 11:17:37;;;;;;;5.18;1.10;;;14.00;99.90;;;;;;5068509;23;20160;-86
2022/11/09 11:20:42;;;;;;;6.20;1.50;;;14.30;99.90;;;;;;4992848;28;20073;-89
2022/11/09 11:23:38;;;;;;;3.25;0.95;;;13.90;99.90;;;;;;4902793;29;20124;-87
2022/11/09 11:27:09;;;;;;;8.88;1.10;;;13.90;99.90;;;;;;4879817;29;20087;-94
2022/11/09 11:30:27;;;;;;;;;;;;;;;;;;;;;
2022/11/09 11:33:35;;;;;;;;;;;;;;;;;;;;;
2022/11/09 11:36:44;;;;;;;7.07;1.20;;;13.80;99.90;;;;;;4905839;29;20123;-87
2022/11/09 11:40:12;;;;;;;6.10;0.90;;;14.00;99.90;;;;;;4895434;29;20060;-86
2022/11/09 11:43:19;;;;;;;7.05;1.13;;;13.90;99.90;;;;;;4895525;29;20221;-86
2022/11/09 11:46:31;;;;;;;10.30;1.20;;;13.90;99.90;;;;;;4904445;29;20087;-87
2022/11/09 11:49:47;;;;;;;;;;;;;;;;;;;;;
2022/11/09 11:52:53;;;;;;;6.18;1.48;;;13.90;99.90;;;;;;4904880;29;20500;-84
2022/11/09 11:55:57;;;;;;;4.63;1.20;;;13.90;99.90;;;;;;4895552;29;20048;-87
2022/11/09 11:59:23;;;;;;;4.68;1.38;;;13.90;99.90;;;;;;4919471;28;20089;-88
2022/11/09 12:02:54;;;;;;;5.93;1.00;;;14.20;99.90;;;;;;4975235;28;20053;-85
2022/11/09 12:06:07;;;;;;;3.50;0.95;;;14.30;99.90;;;;;;4993675;28;20420;-86
2022/11/09 12:08:58;;;;;;;6.00;1.33;;;14.40;99.90;;;;;;5001281;28;20038;-86
2022/11/09 12:11:49;;;;;;;10.27;0.98;;;14.30;99.90;;;;;;4992985;28;20053;-90
2022/11/09 12:18:52;;;;;;;6.05;1.23;;;14.30;99.90;;;;;;4992447;28;20053;-91
2022/11/09 12:22:04;;;;;;;5.32;1.10;;;14.30;99.90;;;;;;4981286;28;20051;-92
2022/11/09 12:33:36;;;;;;;;;;;;;;;;;;;;;
2022/11/09 12:37:07;;;;;;;6.47;1.30;;;14.00;99.90;;;;;;4862122;29;20044;-89
2022/11/09 12:40:35;;;;;;;;;;;;;;;;;;;;;
2022/11/09 12:43:58;;;;;;;7.50;1.20;;;14.10;99.90;;;;;;4833838;29;20106;-90
2022/11/09 12:46:54;;;;;;;4.65;1.55;;;13.90;99.90;;;;;;4838137;29;20053;-89
2022/11/09 12:53:13;;;;;;;4.63;1.20;;;13.70;99.90;;;;;;5434390;23;20508;-86
2022/11/09 13:00:54;;;;;;;7.32;1.20;;;13.90;99.90;;;;;;4917182;29;20108;-86
2022/11/09 13:04:09;;;;;;;;;;;;;;;;;;;;;
2022/11/09 13:07:20;;;;;;;;;;;;;;;;;;;;;
2022/11/09 13:10:52;;;;;;;4.80;2.08;;;14.00;99.90;;;;;;4913268;29;20196;-87
2022/11/09 13:13:50;;;;;;;;;;;;;;;;;;;;;
2022/11/09 13:16:54;;;;;;;3.60;1.08;;;13.90;99.90;;;;;;4881573;29;20056;-86
2022/11/09 13:20:25;;;;;;;4.85;1.00;;;13.80;99.90;;;;;;4918602;29;20083;-88
2022/11/09 13:23:27;;;;;;;5.93;1.35;;;13.60;99.90;;;;;;4917625;29;20098;-89
2022/11/09 13:25:56;;;;;;;3.55;0.70;;;13.40;99.90;;;;;;4901033;29;20044;-86
2022/11/09 13:29:00;;;;;;;1.95;0.82;;;13.20;99.90;;;;;;4901887;29;20055;-89
2022/11/09 13:32:04;;;;;;;6.07;1.10;;;13.10;99.90;;;;;;4902010;29;20082;-89
2022/11/09 13:35:10;;;;;;;;;;;;;;;;;;;;;
2022/11/09 13:56:38;;;;;;;3.58;1.00;;;12.30;99.90;;;;;;4659392;23;20043;-88
2022/11/09 16:03:28;;;;;;;2.15;0.60;;;11.10;99.90;;;;;;4866779;29;20143;-89
2022/11/09 16:06:59;;;;;;;1.38;0.70;;;11.10;99.90;;;;;;4857359;29;20185;-89
2022/11/09 16:10:29;;;;;;;2.80;0.75;;;11.10;99.90;;;;;;4850102;29;20118;-90
2022/11/09 16:13:29;;;;;;;3.30;0.65;;;11.10;99.90;;;;;;4801774;29;20070;-92
2022/11/09 16:16:51;;;;;;;2.08;0.52;;;11.10;99.90;;;;;;4798285;29;20082;-91
2022/11/09 16:24:29;;;;;;;2.40;0.70;;;10.80;99.90;;;;;;4800591;29;20153;-91
2022/11/09 16:30:53;;;;;;;3.17;0.50;;;11.00;99.90;;;;;;4707788;30;20507;-88
2022/11/09 16:35:03;;;;;;;;;;;;;;;;;;;;;
2022/11/09 16:41:43;;;;;;;;;;;;;;;;;;;;;
2022/11/09 16:44:51;;;;;;;1.55;0.30;;;11.00;99.90;;;;;;4744655;30;20060;-89
2022/11/09 17:32:26;;;;;;;;;;;;;;;;;;;;;
2022/11/09 17:39:00;;;;;;;4.78;0.70;;;11.10;99.90;;;;;;6202476;23;20471;-88
2022/11/09 17:44:54;;;;;;;2.90;0.80;;;11.10;99.90;;;;;;6220243;22;20036;-90
2022/11/09 18:08:07;;;;;;;1.95;0.40;;;10.90;99.90;;;;;;6134756;23;20052;-90
2022/11/09 18:11:35;;;;;;;;;;;;;;;;;;;;;
2022/11/09 18:25:19;;;;;;;;;;;;;;;;;;;;;
2022/11/09 18:28:59;;;;;;;3.40;0.52;;;11.00;99.90;;;;;;6248704;23;20439;-88
2022/11/09 18:32:13;;;;;;;2.30;0.52;;;11.40;99.90;;;;;;6221067;23;20350;-90
2022/11/09 18:43:43;;;;;;;;;;;;;;;;;;;;;
2022/11/09 18:47:22;;;;;;;;;;;;;;;;;;;;;
2022/11/09 18:56:17;;;;;;;1.40;0.35;;;10.80;99.90;;;;;;6172615;23;20109;-90
2022/11/09 19:35:14;;;;;;;2.05;0.40;;;10.40;99.90;;;;;;6245516;22;20031;-87
2022/11/09 19:38:26;;;;;;;;;;;;;;;;;;;;;
2022/11/09 19:41:55;;;;;;;;;;;;;;;;;;;;;
2022/11/09 19:45:12;;;;;;;;;;;;;;;;;;;;;
2022/11/09 19:49:02;;;;;;;;;;;;;;;;;;;;;
2022/11/09 19:52:02;;;;;;;2.50;0.40;;;10.30;99.90;;;;;;6123972;23;20022;-87
2022/11/09 19:55:13;;;;;;;;;;;;;;;;;;;;;
2022/11/09 19:58:36;;;;;;;;;;;;;;;;;;;;;
2022/11/09 20:01:43;;;;;;;3.72;0.40;;;10.50;99.90;;;;;;6123680;23;20026;-85
2022/11/09 20:04:57;;;;;;;1.98;0.57;;;10.20;99.90;;;;;;6096085;23;20474;-87
2022/11/09 20:08:26;;;;;;;;;;;;;;;;;;;;;
2022/11/09 20:14:45;;;;;;;1.58;0.47;;;10.30;99.90;;;;;;6120535;23;20026;-85
2022/11/09 20:17:14;;;;;;;2.17;0.50;;;10.30;99.90;;;;;;6098530;23;20026;-86
2022/11/09 20:19:43;;;;;;;3.47;0.50;;;10.30;99.90;;;;;;6098030;23;20449;-87
2022/11/09 20:22:16;;;;;;;0.95;0.32;;;10.30;99.90;;;;;;6122580;23;20089;-89
2022/11/09 20:24:44;;;;;;;4.57;0.60;;;10.30;99.90;;;;;;6097885;23;20018;-88
2022/11/09 20:27:11;;;;;;;1.85;0.47;;;10.30;99.90;;;;;;6134543;23;20035;-89
2022/11/09 20:29:47;;;;;;;4.07;0.52;;;10.30;99.90;;;;;;6244654;23;20513;-90
2022/11/09 20:32:15;;;;;;;1.88;0.43;;;10.30;99.90;;;;;;6217865;23;20509;-88
2022/11/09 20:34:42;;;;;;;2.75;0.55;;;10.30;99.90;;;;;;6213304;23;20066;-85
2022/11/09 20:37:09;;;;;;;5.80;1.52;;;10.30;99.90;;;;;;6212880;23;20079;-86
2022/11/09 20:39:36;;;;;;;4.60;0.82;;;10.20;99.90;;;;;;6213428;23;20411;-85
2022/11/09 20:42:10;;;;;;;0.65;0.40;;;10.20;99.90;;;;;;6214851;23;20463;-88
2022/11/09 20:44:42;;;;;;;3.47;0.40;;;10.20;99.90;;;;;;6213999;23;20016;-87
2022/11/09 20:47:14;;;;;;;5.03;0.88;;;10.20;99.90;;;;;;6215107;23;20020;-87
2022/11/09 20:49:46;;;;;;;4.47;0.73;;;10.10;99.90;;;;;;6215432;23;20086;-86
2022/11/09 20:52:17;;;;;;;2.45;0.80;;;10.20;99.90;;;;;;6214578;23;20470;-87
2022/11/09 20:54:47;;;;;;;2.65;0.68;;;10.20;99.90;;;;;;6214604;23;20017;-85
2022/11/09 20:57:16;;;;;;;1.73;0.50;;;10.20;99.90;;;;;;6214748;23;20021;-84
2022/11/09 21:00:32;;;;;;;;;;;;;;;;;;;;;
2022/11/09 21:03:58;;;;;;;5.40;0.85;;;10.20;99.90;;;;;;6215466;23;20106;-89
2022/11/09 21:07:17;;;;;;;2.25;0.57;;;10.20;99.90;;;;;;6215147;23;20455;-86
2022/11/09 21:10:32;;;;;;;;;;;;;;;;;;;;;
2022/11/09 21:13:50;;;;;;;1.85;0.50;;;10.10;99.90;;;;;;6214833;23;20047;-86
2022/11/09 21:17:03;;;;;;;1.77;0.60;;;10.40;99.90;;;;;;6214831;23;20060;-86
2022/11/09 21:20:40;;;;;;;4.03;0.50;;;10.10;99.90;;;;;;6187485;23;20017;-85
2022/11/09 21:31:08;;;;;;;;;;;;;;;;;;;;;
2022/11/09 21:34:11;;;;;;;1.33;0.60;;;10.20;99.90;;;;;;6227691;23;20414;-89
2022/11/09 21:37:48;;;;;;;5.25;0.80;;;10.10;99.90;;;;;;6245294;23;20133;-89
2022/11/09 21:44:42;;;;;;;;;;;;;;;;;;;;;
2022/11/09 21:48:37;;;;;;;;;;;;;;;;;;;;;
2022/11/09 21:52:02;;;;;;;4.07;0.68;;;10.20;99.90;;;;;;6247052;23;20098;-87
2022/11/09 21:55:10;;;;;;;2.35;0.60;;;10.10;99.90;;;;;;6246333;23;20016;-89
2022/11/09 21:58:40;;;;;;;0.70;0.70;;;10.00;99.90;;;;;;6246812;23;20325;-87
2022/11/09 22:01:31;;;;;;;1.20;0.40;;;10.00;99.90;;;;;;6246931;23;20024;-85
2022/11/09 22:04:21;;;;;;;1.23;0.50;;;9.90;99.90;;;;;;6244610;23;20014;-83
2022/11/09 22:07:13;;;;;;;0.52;0.40;;;9.90;99.90;;;;;;6246820;23;20024;-86
2022/11/09 22:10:23;;;;;;;1.70;0.40;;;9.90;99.90;;;;;;6219035;23;20016;-86
2022/11/09 22:16:52;;;;;;;1.83;0.50;;;9.80;99.90;;;;;;6246649;23;20028;-87
2022/11/09 22:23:50;;;;;;;0.52;0.40;;;9.80;99.90;;;;;;6246389;23;20028;-87
2022/11/09 22:27:28;;;;;;;2.38;0.40;;;9.80;99.90;;;;;;6246668;23;20027;-87
2022/11/09 22:30:33;;;;;;;0.88;0.40;;;9.80;99.90;;;;;;6246477;23;20099;-88
2022/11/09 22:33:32;;;;;;;1.02;0.47;;;9.80;99.90;;;;;;6246769;23;20028;-85
2022/11/09 22:36:45;;;;;;;2.47;0.50;;;9.90;99.90;;;;;;6241854;23;20024;-88
2022/11/09 22:39:49;;;;;;;0.63;0.30;;;9.80;99.90;;;;;;6246294;23;20485;-87
2022/11/09 22:42:17;;;;;;;1.85;0.40;;;9.80;99.90;;;;;;6243942;23;20019;-85
2022/11/09 22:44:44;;;;;;;1.50;0.45;;;9.80;99.90;;;;;;6194321;23;20020;-83
2022/11/09 22:47:10;;;;;;;2.05;0.40;;;9.90;99.90;;;;;;6246276;23;20083;-83
2022/11/09 22:49:37;;;;;;;1.52;0.50;;;9.90;99.90;;;;;;6219476;23;20026;-83
2022/11/09 22:52:05;;;;;;;0.73;0.38;;;9.90;99.90;;;;;;6246832;23;20016;-83
2022/11/09 22:54:32;;;;;;;1.65;0.30;;;9.90;99.90;;;;;;6245916;23;20020;-84
2022/11/09 22:57:02;;;;;;;0.55;0.30;;;9.90;99.90;;;;;;6245105;23;20016;-87
2022/11/09 22:59:32;;;;;;;2.22;0.70;;;9.80;99.90;;;;;;6246231;23;20059;-86
2022/11/09 23:02:01;;;;;;;0.85;0.30;;;9.80;99.90;;;;;;6245881;23;20020;-84
2022/11/09 23:04:33;;;;;;;0.63;0.20;;;9.80;99.90;;;;;;6217793;23;20086;-83
2022/11/09 23:07:02;;;;;;;0.28;0.20;;;9.80;99.90;;;;;;6219220;23;20020;-86
2022/11/09 23:09:34;;;;;;;0.20;0.20;;;9.80;99.90;;;;;;6246513;23;20023;-83
2022/11/09 23:12:04;;;;;;;1.38;0.40;;;9.50;99.90;;;;;;6244183;23;20047;-87
2022/11/09 23:20:13;;;;;;;0.85;0.30;;;9.80;99.90;;;;;;6242932;23;20058;-85
2022/11/09 23:22:48;;;;;;;1.75;0.30;;;9.80;99.90;;;;;;6246105;23;20020;-86
2022/11/09 23:28:35;;;;;;;1.85;0.30;;;9.80;99.90;;;;;;6168225;23;20020;-87
2022/11/09 23:31:26;;;;;;;1.02;0.40;;;9.80;99.90;;;;;;6244841;23;20016;-87
2022/11/09 23:34:37;;;;;;;2.45;0.50;;;9.90;99.90;;;;;;6245237;23;20402;-86
2022/11/09 23:37:23;;;;;;;;;;;9.80;99.90;;;;;;6242899;23;20082;-88
2022/11/09 23:40:18;;;;;;;1.40;0.52;;;9.80;99.90;;;;;;6245552;23;20258;-86
2022/11/09 23:43:16;;;;;;;;;;;;;;;;;;;;;
2022/11/09 23:46:44;;;;;;;;;;;;;;;;;;;;;
2022/11/09 23:49:53;;;;;;;0.82;0.60;;;9.70;99.90;;;;;;6245757;23;20024;-88
2022/11/09 23:53:26;;;;;;;5.18;0.60;;;9.70;99.90;;;;;;6245713;23;20024;-88
2022/11/09 23:56:48;;;;;;;2.65;0.68;;;9.70;99.90;;;;;;6245495;23;20020;-88
